sensor_id;sensor_type;location;lat;lon;timestamp;temperature;humidity
796;DHT22;381;48.770;9.188;2022-07-26T00:03:23;25.90;65.50
796;DHT22;381;48.770;9.188;2022-07-26T00:08:27;25.90;66.30
796;DHT22;381;48.770;9.188;2022-07-26T00:13:29;25.90;65.40
796;DHT22;381;48.770;9.188;2022-07-26T00:18:31;25.90;67.70
796;DHT22;381;48.770;9.188;2022-07-26T00:23:35;25.90;65.80
796;DHT22;381;48.770;9.188;2022-07-26T00:28:38;25.90;67.90
796;DHT22;381;48.770;9.188;2022-07-26T00:33:41;25.90;66.70
796;DHT22;381;48.770;9.188;2022-07-26T00:38:44;26.00;67.90
796;DHT22;381;48.770;9.188;2022-07-26T00:43:54;26.00;65.10
796;DHT22;381;48.770;9.188;2022-07-26T00:48:56;25.90;64.60
796;DHT22;381;48.770;9.188;2022-07-26T00:54:00;25.90;65.70
796;DHT22;381;48.770;9.188;2022-07-26T00:59:02;25.90;66.30
796;DHT22;381;48.770;9.188;2022-07-26T01:04:05;25.90;65.10
796;DHT22;381;48.770;9.188;2022-07-26T01:09:08;25.90;65.50
796;DHT22;381;48.770;9.188;2022-07-26T01:14:11;25.90;65.60
796;DHT22;381;48.770;9.188;2022-07-26T01:19:13;25.80;66.30
796;DHT22;381;48.770;9.188;2022-07-26T01:24:17;25.80;68.30
796;DHT22;381;48.770;9.188;2022-07-26T01:29:19;25.70;70.20
796;DHT22;381;48.770;9.188;2022-07-26T01:34:21;25.50;72.70
796;DHT22;381;48.770;9.188;2022-07-26T01:39:24;25.30;73.50
796;DHT22;381;48.770;9.188;2022-07-26T01:44:27;25.10;75.10
796;DHT22;381;48.770;9.188;2022-07-26T01:49:29;25.00;76.50
796;DHT22;381;48.770;9.188;2022-07-26T01:54:32;24.90;76.70
796;DHT22;381;48.770;9.188;2022-07-26T01:59:34;24.80;77.30
796;DHT22;381;48.770;9.188;2022-07-26T02:04:36;24.80;77.70
796;DHT22;381;48.770;9.188;2022-07-26T02:09:58;24.80;77.30
796;DHT22;381;48.770;9.188;2022-07-26T02:15:01;24.80;76.60
796;DHT22;381;48.770;9.188;2022-07-26T02:20:05;24.80;76.20
796;DHT22;381;48.770;9.188;2022-07-26T02:25:09;24.80;76.10
796;DHT22;381;48.770;9.188;2022-07-26T02:30:11;24.80;75.40
796;DHT22;381;48.770;9.188;2022-07-26T02:35:14;24.80;75.40
796;DHT22;381;48.770;9.188;2022-07-26T02:40:17;24.80;75.70
796;DHT22;381;48.770;9.188;2022-07-26T02:45:19;24.80;74.60
796;DHT22;381;48.770;9.188;2022-07-26T02:50:23;24.80;74.80
796;DHT22;381;48.770;9.188;2022-07-26T02:55:27;24.80;75.10
796;DHT22;381;48.770;9.188;2022-07-26T03:00:29;24.80;74.90
796;DHT22;381;48.770;9.188;2022-07-26T03:05:31;24.70;76.20
796;DHT22;381;48.770;9.188;2022-07-26T03:10:35;24.70;75.80
796;DHT22;381;48.770;9.188;2022-07-26T03:15:38;24.60;75.30
796;DHT22;381;48.770;9.188;2022-07-26T03:20:40;24.60;75.30
796;DHT22;381;48.770;9.188;2022-07-26T03:25:44;24.60;76.40
796;DHT22;381;48.770;9.188;2022-07-26T03:30:46;24.60;75.60
796;DHT22;381;48.770;9.188;2022-07-26T03:35:48;24.60;75.00
796;DHT22;381;48.770;9.188;2022-07-26T03:40:51;24.60;76.00
796;DHT22;381;48.770;9.188;2022-07-26T03:45:53;24.50;75.50
796;DHT22;381;48.770;9.188;2022-07-26T03:50:55;24.40;76.00
796;DHT22;381;48.770;9.188;2022-07-26T03:55:59;24.40;75.30
796;DHT22;381;48.770;9.188;2022-07-26T04:01:18;24.40;76.20
796;DHT22;381;48.770;9.188;2022-07-26T04:06:21;24.30;76.90
796;DHT22;381;48.770;9.188;2022-07-26T04:11:24;24.30;76.10
796;DHT22;381;48.770;9.188;2022-07-26T04:16:26;24.30;76.80
796;DHT22;381;48.770;9.188;2022-07-26T04:21:28;24.20;76.00
796;DHT22;381;48.770;9.188;2022-07-26T04:26:32;24.20;75.00
796;DHT22;381;48.770;9.188;2022-07-26T04:31:34;24.10;76.20
796;DHT22;381;48.770;9.188;2022-07-26T04:36:36;23.90;77.00
796;DHT22;381;48.770;9.188;2022-07-26T04:41:40;23.90;77.70
796;DHT22;381;48.770;9.188;2022-07-26T04:46:42;23.90;77.10
796;DHT22;381;48.770;9.188;2022-07-26T04:51:44;23.80;77.40
796;DHT22;381;48.770;9.188;2022-07-26T04:56:47;23.90;77.30
796;DHT22;381;48.770;9.188;2022-07-26T05:01:49;23.90;77.20
796;DHT22;381;48.770;9.188;2022-07-26T05:06:52;24.10;78.00
796;DHT22;381;48.770;9.188;2022-07-26T05:11:56;24.20;77.10
796;DHT22;381;48.770;9.188;2022-07-26T05:16:58;24.20;76.70
796;DHT22;381;48.770;9.188;2022-07-26T05:22:00;24.10;77.10
796;DHT22;381;48.770;9.188;2022-07-26T05:27:03;24.10;77.90
796;DHT22;381;48.770;9.188;2022-07-26T05:32:06;24.20;76.70
796;DHT22;381;48.770;9.188;2022-07-26T05:37:08;24.30;76.70
796;DHT22;381;48.770;9.188;2022-07-26T05:42:12;24.40;77.80
796;DHT22;381;48.770;9.188;2022-07-26T05:47:14;24.60;77.70
796;DHT22;381;48.770;9.188;2022-07-26T05:52:16;24.70;76.30
796;DHT22;381;48.770;9.188;2022-07-26T05:57:19;24.60;75.70
796;DHT22;381;48.770;9.188;2022-07-26T06:02:21;24.50;76.00
796;DHT22;381;48.770;9.188;2022-07-26T06:07:23;24.50;76.00
796;DHT22;381;48.770;9.188;2022-07-26T06:12:27;24.40;76.10
796;DHT22;381;48.770;9.188;2022-07-26T06:17:29;24.30;76.50
796;DHT22;381;48.770;9.188;2022-07-26T06:22:31;24.30;76.20
796;DHT22;381;48.770;9.188;2022-07-26T06:27:35;24.30;73.80
796;DHT22;381;48.770;9.188;2022-07-26T06:32:37;24.30;72.30
796;DHT22;381;48.770;9.188;2022-07-26T06:37:39;24.40;72.50
796;DHT22;381;48.770;9.188;2022-07-26T06:42:43;24.60;68.90
796;DHT22;381;48.770;9.188;2022-07-26T06:47:46;24.70;70.80
796;DHT22;381;48.770;9.188;2022-07-26T06:52:48;24.90;68.70
796;DHT22;381;48.770;9.188;2022-07-26T06:57:51;25.10;66.50
796;DHT22;381;48.770;9.188;2022-07-26T07:02:54;25.10;66.20
796;DHT22;381;48.770;9.188;2022-07-26T07:07:56;25.40;64.30
796;DHT22;381;48.770;9.188;2022-07-26T07:12:59;25.60;62.30
796;DHT22;381;48.770;9.188;2022-07-26T07:18:01;25.70;61.70
796;DHT22;381;48.770;9.188;2022-07-26T07:23:03;25.90;61.10
796;DHT22;381;48.770;9.188;2022-07-26T07:28:07;26.10;59.40
796;DHT22;381;48.770;9.188;2022-07-26T07:33:09;26.30;59.50
796;DHT22;381;48.770;9.188;2022-07-26T07:38:12;26.60;59.20
796;DHT22;381;48.770;9.188;2022-07-26T07:43:16;26.90;58.90
796;DHT22;381;48.770;9.188;2022-07-26T07:48:18;27.20;57.60
796;DHT22;381;48.770;9.188;2022-07-26T07:53:20;27.60;56.10
796;DHT22;381;48.770;9.188;2022-07-26T07:58:24;28.00;56.00
796;DHT22;381;48.770;9.188;2022-07-26T08:03:26;28.40;55.40
796;DHT22;381;48.770;9.188;2022-07-26T08:08:28;28.90;55.00
796;DHT22;381;48.770;9.188;2022-07-26T08:13:32;29.30;54.00
796;DHT22;381;48.770;9.188;2022-07-26T08:18:34;29.20;53.00
796;DHT22;381;48.770;9.188;2022-07-26T08:23:36;28.90;52.90
796;DHT22;381;48.770;9.188;2022-07-26T08:28:39;29.10;52.90
796;DHT22;381;48.770;9.188;2022-07-26T08:33:41;29.20;53.20
796;DHT22;381;48.770;9.188;2022-07-26T08:38:44;29.10;53.00
796;DHT22;381;48.770;9.188;2022-07-26T08:43:47;29.10;52.20
796;DHT22;381;48.770;9.188;2022-07-26T08:48:50;29.60;52.50
796;DHT22;381;48.770;9.188;2022-07-26T08:53:53;30.00;51.70
796;DHT22;381;48.770;9.188;2022-07-26T08:58:57;30.40;50.10
796;DHT22;381;48.770;9.188;2022-07-26T09:04:16;30.10;49.70
796;DHT22;381;48.770;9.188;2022-07-26T09:09:19;29.90;50.40
796;DHT22;381;48.770;9.188;2022-07-26T09:14:34;29.70;50.80
796;DHT22;381;48.770;9.188;2022-07-26T09:19:37;29.40;50.80
796;DHT22;381;48.770;9.188;2022-07-26T09:24:41;29.10;50.90
796;DHT22;381;48.770;9.188;2022-07-26T09:29:46;29.10;51.20
796;DHT22;381;48.770;9.188;2022-07-26T09:34:52;29.50;49.90
796;DHT22;381;48.770;9.188;2022-07-26T09:39:57;30.10;50.50
796;DHT22;381;48.770;9.188;2022-07-26T09:45:02;30.50;48.50
796;DHT22;381;48.770;9.188;2022-07-26T09:50:09;30.20;49.40
796;DHT22;381;48.770;9.188;2022-07-26T09:55:12;30.30;49.50
796;DHT22;381;48.770;9.188;2022-07-26T10:00:17;30.30;49.30
796;DHT22;381;48.770;9.188;2022-07-26T10:05:20;30.40;49.80
796;DHT22;381;48.770;9.188;2022-07-26T10:10:27;30.80;49.40
796;DHT22;381;48.770;9.188;2022-07-26T10:15:36;30.90;48.50
796;DHT22;381;48.770;9.188;2022-07-26T10:20:49;30.80;49.30
796;DHT22;381;48.770;9.188;2022-07-26T10:25:52;31.10;48.50
796;DHT22;381;48.770;9.188;2022-07-26T10:31:29;30.60;49.20
796;DHT22;381;48.770;9.188;2022-07-26T10:36:34;30.10;50.10
796;DHT22;381;48.770;9.188;2022-07-26T10:41:40;29.50;51.20
796;DHT22;381;48.770;9.188;2022-07-26T10:47:01;29.10;51.50
796;DHT22;381;48.770;9.188;2022-07-26T10:52:15;28.90;52.00
796;DHT22;381;48.770;9.188;2022-07-26T10:57:18;28.60;52.10
796;DHT22;381;48.770;9.188;2022-07-26T11:02:23;28.40;51.80
796;DHT22;381;48.770;9.188;2022-07-26T11:07:26;28.20;51.90
796;DHT22;381;48.770;9.188;2022-07-26T11:12:28;27.90;52.30
796;DHT22;381;48.770;9.188;2022-07-26T11:17:31;27.60;53.00
796;DHT22;381;48.770;9.188;2022-07-26T11:22:34;27.50;52.70
796;DHT22;381;48.770;9.188;2022-07-26T11:27:36;27.50;52.40
796;DHT22;381;48.770;9.188;2022-07-26T11:32:39;27.40;52.50
796;DHT22;381;48.770;9.188;2022-07-26T11:37:53;27.30;52.60
796;DHT22;381;48.770;9.188;2022-07-26T11:42:56;27.30;52.80
796;DHT22;381;48.770;9.188;2022-07-26T11:47:59;27.40;53.10
796;DHT22;381;48.770;9.188;2022-07-26T11:53:01;27.40;53.00
796;DHT22;381;48.770;9.188;2022-07-26T11:58:21;27.40;51.50
796;DHT22;381;48.770;9.188;2022-07-26T12:03:24;27.30;51.90
796;DHT22;381;48.770;9.188;2022-07-26T12:08:37;27.40;52.10
796;DHT22;381;48.770;9.188;2022-07-26T12:13:52;27.40;52.00
796;DHT22;381;48.770;9.188;2022-07-26T12:18:55;27.40;51.20
796;DHT22;381;48.770;9.188;2022-07-26T12:23:57;27.20;51.10
796;DHT22;381;48.770;9.188;2022-07-26T12:29:00;27.20;51.80
796;DHT22;381;48.770;9.188;2022-07-26T12:34:23;27.20;50.80
796;DHT22;381;48.770;9.188;2022-07-26T12:39:25;27.20;51.10
796;DHT22;381;48.770;9.188;2022-07-26T12:44:28;27.10;51.30
796;DHT22;381;48.770;9.188;2022-07-26T12:49:31;27.10;50.80
796;DHT22;381;48.770;9.188;2022-07-26T12:54:34;27.00;50.80
796;DHT22;381;48.770;9.188;2022-07-26T12:59:36;27.00;51.10
796;DHT22;381;48.770;9.188;2022-07-26T13:04:39;27.10;50.10
796;DHT22;381;48.770;9.188;2022-07-26T13:09:42;27.00;51.60
796;DHT22;381;48.770;9.188;2022-07-26T13:14:44;27.20;50.00
796;DHT22;381;48.770;9.188;2022-07-26T13:19:48;27.30;49.50
796;DHT22;381;48.770;9.188;2022-07-26T13:24:50;27.30;49.10
796;DHT22;381;48.770;9.188;2022-07-26T13:29:52;27.20;50.10
796;DHT22;381;48.770;9.188;2022-07-26T13:34:55;27.10;48.50
796;DHT22;381;48.770;9.188;2022-07-26T13:39:57;27.10;49.70
796;DHT22;381;48.770;9.188;2022-07-26T13:45:00;27.20;50.40
796;DHT22;381;48.770;9.188;2022-07-26T13:50:04;27.10;49.30
796;DHT22;381;48.770;9.188;2022-07-26T13:55:07;27.20;50.00
796;DHT22;381;48.770;9.188;2022-07-26T14:00:12;27.50;48.40
796;DHT22;381;48.770;9.188;2022-07-26T14:05:16;27.50;48.90
796;DHT22;381;48.770;9.188;2022-07-26T14:10:19;27.60;48.10
796;DHT22;381;48.770;9.188;2022-07-26T14:15:21;27.50;49.30
796;DHT22;381;48.770;9.188;2022-07-26T14:20:25;27.70;48.00
796;DHT22;381;48.770;9.188;2022-07-26T14:25:28;27.70;48.10
796;DHT22;381;48.770;9.188;2022-07-26T14:30:30;27.80;49.80
796;DHT22;381;48.770;9.188;2022-07-26T14:35:34;27.80;47.90
796;DHT22;381;48.770;9.188;2022-07-26T14:40:36;27.80;48.40
796;DHT22;381;48.770;9.188;2022-07-26T14:45:43;27.70;48.30
796;DHT22;381;48.770;9.188;2022-07-26T14:50:49;27.70;47.90
796;DHT22;381;48.770;9.188;2022-07-26T14:55:51;27.70;48.50
796;DHT22;381;48.770;9.188;2022-07-26T15:00:54;27.70;47.70
796;DHT22;381;48.770;9.188;2022-07-26T15:05:58;27.80;47.70
796;DHT22;381;48.770;9.188;2022-07-26T15:11:00;27.80;48.00
796;DHT22;381;48.770;9.188;2022-07-26T15:16:05;27.80;47.50
796;DHT22;381;48.770;9.188;2022-07-26T15:21:08;27.90;48.20
796;DHT22;381;48.770;9.188;2022-07-26T15:26:10;27.90;47.50
796;DHT22;381;48.770;9.188;2022-07-26T15:31:12;27.80;47.10
796;DHT22;381;48.770;9.188;2022-07-26T15:36:16;27.70;48.00
796;DHT22;381;48.770;9.188;2022-07-26T15:41:20;27.50;49.10
796;DHT22;381;48.770;9.188;2022-07-26T15:46:22;27.50;47.20
796;DHT22;381;48.770;9.188;2022-07-26T15:51:25;27.50;48.10
796;DHT22;381;48.770;9.188;2022-07-26T15:56:27;27.60;50.60
796;DHT22;381;48.770;9.188;2022-07-26T16:01:30;27.70;48.20
796;DHT22;381;48.770;9.188;2022-07-26T16:06:34;27.70;48.50
796;DHT22;381;48.770;9.188;2022-07-26T16:11:36;27.70;49.40
796;DHT22;381;48.770;9.188;2022-07-26T16:16:38;27.60;48.60
796;DHT22;381;48.770;9.188;2022-07-26T16:21:42;27.50;51.20
796;DHT22;381;48.770;9.188;2022-07-26T16:26:44;27.40;50.70
796;DHT22;381;48.770;9.188;2022-07-26T16:31:46;27.20;51.90
796;DHT22;381;48.770;9.188;2022-07-26T16:36:50;27.10;51.10
796;DHT22;381;48.770;9.188;2022-07-26T16:41:52;27.10;52.30
796;DHT22;381;48.770;9.188;2022-07-26T16:46:54;27.10;50.00
796;DHT22;381;48.770;9.188;2022-07-26T16:51:58;27.10;50.90
796;DHT22;381;48.770;9.188;2022-07-26T16:57:00;27.10;51.00
796;DHT22;381;48.770;9.188;2022-07-26T17:02:02;27.10;51.30
796;DHT22;381;48.770;9.188;2022-07-26T17:07:06;27.10;50.30
796;DHT22;381;48.770;9.188;2022-07-26T17:12:08;27.10;50.60
796;DHT22;381;48.770;9.188;2022-07-26T17:17:10;27.10;50.10
796;DHT22;381;48.770;9.188;2022-07-26T17:22:14;27.00;50.40
796;DHT22;381;48.770;9.188;2022-07-26T17:27:16;27.00;51.00
796;DHT22;381;48.770;9.188;2022-07-26T17:32:18;26.80;51.70
796;DHT22;381;48.770;9.188;2022-07-26T17:37:22;26.70;51.20
796;DHT22;381;48.770;9.188;2022-07-26T17:42:24;26.60;50.80
796;DHT22;381;48.770;9.188;2022-07-26T17:47:26;26.50;51.40
796;DHT22;381;48.770;9.188;2022-07-26T17:52:29;26.40;50.60
796;DHT22;381;48.770;9.188;2022-07-26T17:57:31;26.40;52.10
796;DHT22;381;48.770;9.188;2022-07-26T18:02:34;26.30;51.30
796;DHT22;381;48.770;9.188;2022-07-26T18:07:37;26.20;51.30
796;DHT22;381;48.770;9.188;2022-07-26T18:12:40;26.20;51.60
796;DHT22;381;48.770;9.188;2022-07-26T18:17:42;26.20;52.60
796;DHT22;381;48.770;9.188;2022-07-26T18:22:48;26.10;52.50
796;DHT22;381;48.770;9.188;2022-07-26T18:27:50;26.10;52.30
796;DHT22;381;48.770;9.188;2022-07-26T18:32:53;26.00;53.00
796;DHT22;381;48.770;9.188;2022-07-26T18:37:57;25.90;54.10
796;DHT22;381;48.770;9.188;2022-07-26T18:42:59;25.90;53.10
796;DHT22;381;48.770;9.188;2022-07-26T18:48:01;25.80;52.80
796;DHT22;381;48.770;9.188;2022-07-26T18:53:04;25.80;54.20
796;DHT22;381;48.770;9.188;2022-07-26T18:58:06;25.70;53.40
796;DHT22;381;48.770;9.188;2022-07-26T19:03:09;25.70;57.70
796;DHT22;381;48.770;9.188;2022-07-26T19:08:12;25.70;54.20
796;DHT22;381;48.770;9.188;2022-07-26T19:13:14;25.60;54.50
796;DHT22;381;48.770;9.188;2022-07-26T19:18:16;25.60;56.20
796;DHT22;381;48.770;9.188;2022-07-26T19:23:20;25.60;55.00
796;DHT22;381;48.770;9.188;2022-07-26T19:28:22;25.60;56.30
796;DHT22;381;48.770;9.188;2022-07-26T19:33:24;25.60;57.30
796;DHT22;381;48.770;9.188;2022-07-26T19:38:33;25.50;57.50
796;DHT22;381;48.770;9.188;2022-07-26T19:43:35;25.50;55.60
796;DHT22;381;48.770;9.188;2022-07-26T19:48:37;25.50;57.60
796;DHT22;381;48.770;9.188;2022-07-26T19:53:40;25.40;58.00
796;DHT22;381;48.770;9.188;2022-07-26T19:58:44;25.40;58.10
796;DHT22;381;48.770;9.188;2022-07-26T20:03:47;25.40;56.90
796;DHT22;381;48.770;9.188;2022-07-26T20:09:19;25.40;57.20
796;DHT22;381;48.770;9.188;2022-07-26T20:14:29;25.40;58.40
796;DHT22;381;48.770;9.188;2022-07-26T20:19:31;25.30;57.70
796;DHT22;381;48.770;9.188;2022-07-26T20:24:38;25.30;58.30
796;DHT22;381;48.770;9.188;2022-07-26T20:29:42;25.20;59.60
796;DHT22;381;48.770;9.188;2022-07-26T20:34:44;25.10;59.90
796;DHT22;381;48.770;9.188;2022-07-26T20:39:47;25.10;58.10
796;DHT22;381;48.770;9.188;2022-07-26T20:44:49;25.00;57.90
796;DHT22;381;48.770;9.188;2022-07-26T20:49:52;24.80;58.00
796;DHT22;381;48.770;9.188;2022-07-26T20:54:56;24.80;58.00
796;DHT22;381;48.770;9.188;2022-07-26T20:59:58;24.60;58.50
796;DHT22;381;48.770;9.188;2022-07-26T21:05:08;24.40;58.70
796;DHT22;381;48.770;9.188;2022-07-26T21:10:14;24.30;58.70
796;DHT22;381;48.770;9.188;2022-07-26T21:15:16;24.10;59.40
796;DHT22;381;48.770;9.188;2022-07-26T21:20:21;24.00;60.20
796;DHT22;381;48.770;9.188;2022-07-26T21:25:24;24.00;60.60
796;DHT22;381;48.770;9.188;2022-07-26T21:30:26;23.90;61.40
796;DHT22;381;48.770;9.188;2022-07-26T21:35:29;23.90;59.90
796;DHT22;381;48.770;9.188;2022-07-26T21:40:32;23.90;61.10
796;DHT22;381;48.770;9.188;2022-07-26T21:45:34;23.90;60.90
796;DHT22;381;48.770;9.188;2022-07-26T21:50:37;23.80;60.30
796;DHT22;381;48.770;9.188;2022-07-26T21:55:40;23.70;60.40
796;DHT22;381;48.770;9.188;2022-07-26T22:00:42;23.60;60.20
796;DHT22;381;48.770;9.188;2022-07-26T22:05:44;23.50;61.30
796;DHT22;381;48.770;9.188;2022-07-26T22:10:48;23.50;61.50
796;DHT22;381;48.770;9.188;2022-07-26T22:15:50;23.50;60.90
796;DHT22;381;48.770;9.188;2022-07-26T22:20:54;23.40;61.80
796;DHT22;381;48.770;9.188;2022-07-26T22:25:58;23.30;62.50
796;DHT22;381;48.770;9.188;2022-07-26T22:31:01;23.30;61.20
796;DHT22;381;48.770;9.188;2022-07-26T22:36:04;23.30;61.00
796;DHT22;381;48.770;9.188;2022-07-26T22:41:07;23.20;61.50
796;DHT22;381;48.770;9.188;2022-07-26T22:46:09;23.20;61.80
796;DHT22;381;48.770;9.188;2022-07-26T22:51:11;23.20;62.10
796;DHT22;381;48.770;9.188;2022-07-26T22:56:15;23.20;62.70
796;DHT22;381;48.770;9.188;2022-07-26T23:01:17;23.20;62.60
796;DHT22;381;48.770;9.188;2022-07-26T23:06:19;23.20;62.70
796;DHT22;381;48.770;9.188;2022-07-26T23:11:23;23.10;62.60
796;DHT22;381;48.770;9.188;2022-07-26T23:16:25;23.10;62.70
796;DHT22;381;48.770;9.188;2022-07-26T23:21:27;23.10;63.80
796;DHT22;381;48.770;9.188;2022-07-26T23:26:30;23.00;62.60
796;DHT22;381;48.770;9.188;2022-07-26T23:31:33;23.10;63.80
796;DHT22;381;48.770;9.188;2022-07-26T23:36:35;23.10;63.90
796;DHT22;381;48.770;9.188;2022-07-26T23:41:38;23.20;63.60
796;DHT22;381;48.770;9.188;2022-07-26T23:46:40;23.30;63.80
796;DHT22;381;48.770;9.188;2022-07-26T23:51:43;23.30;61.70
796;DHT22;381;48.770;9.188;2022-07-26T23:56:46;23.30;62.10
